createdAt,value
2018-01-12T00:01:47.749Z,67.50
2018-01-12T00:04:15.364Z,68.00
2018-01-12T00:06:44.462Z,67.80
2018-01-12T00:09:15.737Z,67.80
2018-01-12T00:11:43.402Z,67.60
2018-01-12T00:14:10.963Z,67.60
2018-01-12T00:16:39.063Z,67.30
2018-01-12T00:19:06.644Z,67.30
2018-01-12T00:21:34.262Z,67.40
2018-01-12T00:24:02.020Z,67.20
2018-01-12T00:26:29.658Z,67.30
2018-01-12T00:28:58.008Z,67.50
2018-01-12T00:31:26.792Z,67.50
2018-01-12T00:33:54.353Z,67.50
2018-01-12T00:36:22.640Z,67.60
2018-01-12T00:38:51.160Z,67.40
2018-01-12T00:41:18.894Z,67.40
2018-01-12T00:43:47.231Z,67.50
2018-01-12T00:46:14.859Z,67.40
2018-01-12T00:48:42.487Z,67.30
2018-01-12T00:51:10.137Z,67.20
2018-01-12T00:53:37.732Z,67.00
2018-01-12T00:56:05.295Z,67.10
2018-01-12T00:58:33.865Z,67.20
2018-01-12T01:01:01.508Z,67.10
2018-01-12T01:03:30.159Z,66.60
2018-01-12T01:05:57.726Z,66.60
2018-01-12T01:08:25.312Z,66.50
2018-01-12T01:10:53.773Z,66.40
2018-01-12T01:13:21.360Z,66.30
2018-01-12T01:15:48.896Z,66.50
2018-01-12T01:18:16.465Z,66.80
2018-01-12T01:20:44.045Z,65.80
2018-01-12T01:23:12.369Z,66.20
2018-01-12T01:25:40.027Z,66.20
2018-01-12T01:28:07.603Z,66.00
2018-01-12T01:30:35.180Z,66.10
2018-01-12T01:33:02.766Z,66.50
2018-01-12T01:35:31.086Z,67.50
2018-01-12T01:37:58.658Z,66.90
2018-01-12T01:40:26.211Z,66.80
2018-01-12T01:42:53.799Z,66.40
2018-01-12T01:45:21.370Z,66.50
2018-01-12T01:47:48.937Z,66.50
2018-01-12T01:50:17.378Z,66.20
2018-01-12T01:52:44.954Z,66.10
2018-01-12T01:55:12.551Z,65.60
2018-01-12T01:57:40.092Z,65.80
2018-01-12T02:00:07.634Z,65.50
2018-01-12T02:02:35.190Z,65.60
2018-01-12T02:05:02.771Z,66.10
2018-01-12T02:07:30.351Z,66.10
2018-01-12T02:09:57.944Z,66.10
2018-01-12T02:12:25.538Z,66.30
2018-01-12T02:14:53.096Z,66.70
2018-01-12T02:17:20.655Z,67.10
2018-01-12T02:19:48.251Z,67.30
2018-01-12T02:22:16.835Z,67.10
2018-01-12T02:24:45.151Z,67.20
2018-01-12T02:27:12.673Z,67.20
2018-01-12T02:29:40.995Z,67.10
2018-01-12T02:32:08.513Z,67.10
2018-01-12T02:34:36.075Z,66.90
2018-01-12T02:37:03.699Z,67.00
2018-01-12T02:39:31.275Z,66.90
2018-01-12T02:41:58.836Z,66.90
2018-01-12T02:44:27.191Z,67.00
2018-01-12T02:46:54.736Z,66.90
2018-01-12T02:49:22.285Z,66.70
2018-01-12T02:51:49.885Z,66.70
2018-01-12T02:54:17.395Z,66.90
2018-01-12T02:56:45.043Z,66.60
2018-01-12T02:59:12.574Z,66.90
2018-01-12T03:01:40.893Z,66.90
2018-01-12T03:04:08.490Z,66.70
2018-01-12T03:06:36.061Z,66.40
2018-01-12T03:09:03.746Z,66.60
2018-01-12T03:11:32.054Z,66.50
2018-01-12T03:13:59.650Z,66.40
2018-01-12T03:16:27.275Z,66.50
2018-01-12T03:18:54.836Z,66.60
2018-01-12T03:21:22.392Z,66.70
2018-01-12T03:23:49.954Z,66.80
2018-01-12T03:26:17.496Z,66.50
2018-01-12T03:28:45.025Z,66.20
2018-01-12T03:31:12.607Z,66.00
2018-01-12T03:33:40.927Z,65.70
2018-01-12T03:36:08.472Z,65.70
2018-01-12T03:38:36.050Z,65.50
2018-01-12T03:41:03.583Z,65.60
2018-01-12T03:43:31.172Z,65.70
2018-01-12T03:45:58.707Z,66.20
2018-01-12T03:48:26.239Z,66.70
2018-01-12T03:50:54.560Z,67.60
2018-01-12T03:53:22.134Z,67.60
2018-01-12T03:55:49.652Z,67.90
2018-01-12T03:58:17.237Z,67.90
2018-01-12T04:00:44.787Z,67.80
2018-01-12T04:03:12.361Z,68.50
2018-01-12T04:05:39.898Z,68.60
2018-01-12T04:08:07.504Z,68.60
2018-01-12T04:10:35.079Z,68.80
2018-01-12T04:13:02.631Z,68.50
2018-01-12T04:15:30.247Z,68.30
2018-01-12T04:17:57.765Z,68.60
2018-01-12T04:20:26.079Z,68.30
2018-01-12T04:22:53.653Z,68.30
2018-01-12T04:25:21.238Z,68.30
2018-01-12T04:27:48.779Z,68.50
2018-01-12T04:30:16.434Z,68.50
2018-01-12T04:32:43.964Z,68.00
2018-01-12T04:35:11.505Z,68.10
2018-01-12T04:37:39.109Z,67.80
2018-01-12T04:40:06.700Z,67.70
2018-01-12T04:42:34.275Z,67.90
2018-01-12T04:45:02.694Z,68.20
2018-01-12T04:47:30.309Z,68.10
2018-01-12T04:49:57.904Z,68.30
2018-01-12T04:52:25.431Z,68.00
2018-01-12T04:54:52.984Z,68.30
2018-01-12T04:57:20.766Z,68.00
2018-01-12T04:59:48.351Z,67.50
2018-01-12T05:02:15.898Z,66.80
2018-01-12T05:04:44.219Z,66.70
2018-01-12T05:07:11.769Z,66.70
2018-01-12T05:09:39.431Z,66.10
2018-01-12T05:12:06.956Z,66.60
2018-01-12T05:14:35.276Z,66.80
2018-01-12T05:17:02.878Z,66.80
2018-01-12T05:19:30.488Z,67.70
2018-01-12T05:21:58.065Z,67.70
2018-01-12T05:24:25.659Z,67.70
2018-01-12T05:26:53.217Z,67.60
2018-01-12T05:29:20.801Z,67.70
2018-01-12T05:31:48.356Z,67.60
2018-01-12T05:34:15.959Z,67.80
2018-01-12T05:36:43.534Z,67.70
2018-01-12T05:39:11.082Z,67.50
2018-01-12T05:41:38.710Z,67.30
2018-01-12T05:44:06.269Z,67.80
2018-01-12T05:46:33.811Z,67.80
2018-01-12T05:49:02.409Z,67.60
2018-01-12T05:51:29.967Z,67.60
2018-01-12T05:53:57.583Z,67.50
2018-01-12T05:56:25.151Z,68.20
2018-01-12T05:58:52.710Z,68.30
2018-01-12T06:01:32.017Z,68.40
2018-01-12T06:07:07.495Z,68.40
2018-01-12T06:09:35.055Z,68.40
2018-01-12T06:12:02.700Z,68.50
2018-01-12T06:14:30.267Z,68.50
2018-01-12T06:16:57.844Z,68.20
2018-01-12T06:19:25.434Z,68.10
2018-01-12T06:21:53.744Z,67.80
2018-01-12T06:24:21.392Z,67.60
2018-01-12T06:26:48.937Z,67.70
2018-01-12T06:29:16.490Z,67.60
2018-01-12T06:31:44.086Z,67.30
2018-01-12T06:34:11.699Z,67.40
2018-01-12T06:36:39.376Z,67.20
2018-01-12T06:39:06.954Z,66.80
2018-01-12T06:41:35.240Z,67.60
2018-01-12T06:44:02.872Z,67.60
2018-01-12T06:46:30.430Z,67.90
2018-01-12T06:48:58.361Z,67.70
2018-01-12T06:51:26.706Z,67.40
2018-01-12T06:53:54.292Z,67.40
2018-01-12T06:56:21.886Z,66.90
2018-01-12T06:58:49.459Z,66.60
2018-01-12T07:01:17.070Z,67.30
2018-01-12T07:03:44.668Z,67.50
2018-01-12T07:06:12.245Z,67.60
2018-01-12T07:08:39.818Z,67.80
2018-01-12T07:11:07.364Z,67.70
2018-01-12T07:13:34.922Z,67.90
2018-01-12T07:16:02.494Z,67.50
2018-01-12T07:18:30.837Z,67.90
2018-01-12T07:21:10.156Z,67.90
2018-01-12T07:23:45.492Z,67.80
2018-01-12T07:26:13.050Z,68.10
2018-01-12T07:28:40.664Z,68.10
2018-01-12T07:31:09.051Z,68.00
2018-01-12T07:33:37.469Z,68.30
2018-01-12T07:36:05.384Z,68.30
2018-01-12T07:38:32.968Z,68.10
2018-01-12T07:41:01.314Z,68.20
2018-01-12T07:43:28.891Z,68.20
2018-01-12T07:45:57.630Z,68.40
2018-01-12T07:48:25.205Z,68.40
2018-01-12T07:50:53.564Z,67.70
2018-01-12T07:53:21.207Z,67.60
2018-01-12T07:55:48.776Z,67.40
2018-01-12T07:58:16.368Z,67.30
2018-01-12T08:00:49.456Z,67.90
2018-01-12T08:03:17.032Z,67.50
2018-01-12T08:05:44.614Z,67.80
2018-01-12T08:08:12.945Z,67.50
2018-01-12T08:10:40.542Z,67.60
2018-01-12T08:13:08.179Z,67.80
2018-01-12T08:15:35.776Z,67.30
2018-01-12T08:18:03.314Z,67.30
2018-01-12T08:20:30.883Z,67.10
2018-01-12T08:22:58.434Z,66.70
2018-01-12T08:25:26.064Z,67.10
2018-01-12T08:27:53.617Z,66.80
2018-01-12T08:30:21.180Z,66.30
2018-01-12T08:32:48.805Z,66.70
2018-01-12T08:35:16.424Z,66.60
2018-01-12T08:37:44.787Z,65.80
2018-01-12T08:40:12.369Z,65.80
2018-01-12T08:42:39.964Z,65.80
2018-01-12T08:45:07.848Z,66.10
2018-01-12T08:47:35.451Z,65.80
2018-01-12T08:50:03.435Z,66.20
2018-01-12T08:52:31.071Z,65.80
2018-01-12T08:54:58.811Z,66.30
2018-01-12T08:57:26.485Z,65.90
2018-01-12T08:59:54.148Z,65.50
2018-01-12T09:02:21.933Z,66.00
2018-01-12T09:04:49.524Z,66.30
2018-01-12T09:07:17.855Z,66.30
2018-01-12T09:09:45.416Z,66.30
2018-01-12T09:12:12.953Z,66.10
2018-01-12T09:14:56.473Z,66.30
2018-01-12T09:17:45.788Z,67.00
2018-01-12T09:20:18.146Z,66.00
2018-01-12T09:22:49.406Z,65.70
2018-01-12T09:25:26.634Z,65.70
2018-01-12T09:27:55.036Z,66.10
2018-01-12T09:30:22.683Z,66.00
2018-01-12T09:32:50.977Z,65.30
2018-01-12T09:35:18.563Z,65.30
2018-01-12T09:37:46.218Z,65.40
2018-01-12T09:43:11.292Z,64.80
2018-01-12T09:45:39.639Z,65.30
2018-01-12T09:48:19.111Z,65.30
2018-01-12T09:50:47.598Z,66.20
2018-01-12T09:53:18.521Z,66.00
2018-01-12T09:55:47.886Z,66.00
2018-01-12T09:58:17.289Z,65.80
2018-01-12T10:01:03.299Z,65.40
2018-01-12T10:03:30.900Z,65.30
2018-01-12T10:06:03.019Z,65.20
2018-01-12T10:08:30.634Z,64.90
2018-01-12T10:10:58.457Z,64.60
2018-01-12T10:13:26.363Z,64.90
2018-01-12T10:15:55.275Z,64.70
2018-01-12T10:18:44.858Z,64.90
2018-01-12T10:21:24.410Z,65.30
2018-01-12T10:23:52.556Z,64.90
2018-01-12T10:26:20.090Z,65.30
2018-01-12T10:28:59.394Z,66.10
2018-01-12T10:31:38.669Z,65.80
2018-01-12T10:34:08.200Z,65.80
2018-01-12T10:36:39.370Z,65.50
2018-01-12T10:39:18.862Z,65.80
2018-01-12T10:41:58.323Z,66.30
2018-01-12T10:44:27.298Z,66.10
2018-01-12T10:50:17.982Z,66.00
2018-01-12T10:52:48.347Z,66.20
2018-01-12T10:55:16.212Z,65.70
2018-01-12T10:57:44.544Z,66.20
2018-01-12T11:00:23.939Z,66.20
2018-01-12T11:02:51.497Z,66.20
2018-01-12T11:05:19.096Z,66.00
2018-01-12T11:07:46.678Z,66.10
2018-01-12T11:10:14.242Z,66.60
2018-01-12T11:12:41.846Z,66.90
2018-01-12T11:15:09.824Z,66.40
2018-01-12T11:17:37.397Z,66.60
2018-01-12T11:20:05.830Z,66.50
2018-01-12T11:22:33.466Z,66.50
2018-01-12T11:25:01.104Z,66.70
2018-01-12T11:27:28.683Z,66.50
2018-01-12T11:29:56.249Z,66.50
2018-01-12T11:32:23.792Z,66.30
2018-01-12T11:34:51.382Z,66.40
2018-01-12T11:37:18.970Z,66.70
2018-01-12T11:39:46.560Z,66.70
2018-01-12T11:42:15.183Z,67.20
2018-01-12T11:44:42.711Z,67.40
2018-01-12T11:47:10.339Z,67.80
2018-01-12T11:49:38.027Z,68.60
2018-01-12T11:52:05.631Z,68.00
2018-01-12T11:54:33.236Z,67.60
2018-01-12T11:57:00.829Z,67.60
2018-01-12T11:59:28.392Z,67.50
2018-01-12T12:01:55.952Z,66.60
2018-01-12T12:04:23.524Z,66.90
2018-01-12T12:06:51.078Z,67.10
2018-01-12T12:09:18.659Z,67.00
2018-01-12T12:11:46.955Z,66.30
2018-01-12T12:14:14.980Z,66.30
2018-01-12T12:16:42.525Z,66.20
2018-01-12T12:19:10.107Z,66.30
2018-01-12T12:21:37.686Z,66.40
2018-01-12T12:24:05.241Z,66.40
2018-01-12T12:26:33.317Z,66.80
2018-01-12T12:29:00.867Z,67.30
2018-01-12T12:31:28.444Z,67.60
2018-01-12T12:33:57.293Z,67.50
2018-01-12T12:36:24.878Z,67.50
2018-01-12T12:38:53.221Z,68.00
2018-01-12T12:41:20.798Z,68.00
2018-01-12T12:43:48.368Z,68.00
2018-01-12T12:46:15.899Z,67.70
2018-01-12T12:48:43.485Z,67.60
2018-01-12T12:51:11.065Z,67.60
2018-01-12T12:53:39.370Z,67.40
2018-01-12T12:56:06.951Z,67.40
2018-01-12T12:58:35.118Z,67.10
2018-01-12T13:01:02.901Z,67.30
2018-01-12T13:03:31.022Z,67.30
2018-01-12T13:06:00.580Z,67.30
2018-01-12T13:08:28.171Z,67.30
2018-01-12T13:10:59.450Z,67.40
2018-01-12T13:13:28.076Z,68.00
2018-01-12T13:15:57.477Z,67.60
2018-01-12T13:18:30.314Z,66.80
2018-01-12T13:21:01.176Z,66.80
2018-01-12T13:23:32.807Z,66.70
2018-01-12T13:26:04.782Z,66.60
2018-01-12T13:28:34.269Z,66.70
2018-01-12T13:40:48.710Z,67.60
2018-01-12T13:43:16.340Z,67.60
2018-01-12T13:45:44.467Z,67.50
2018-01-12T13:48:14.903Z,67.40
2018-01-12T13:50:43.769Z,68.30
2018-01-12T13:53:12.939Z,67.80
2018-01-12T14:08:35.558Z,67.80
2018-01-12T14:11:04.130Z,68.20
2018-01-12T14:13:32.491Z,67.10
2018-01-12T14:16:00.184Z,67.10
2018-01-12T14:18:28.408Z,66.90
2018-01-12T14:20:55.973Z,66.50
2018-01-12T14:23:23.568Z,66.60
2018-01-12T14:25:51.165Z,66.50
2018-01-12T14:28:18.776Z,67.10
2018-01-12T14:30:47.031Z,67.30
2018-01-12T14:33:14.683Z,67.60
2018-01-12T14:38:45.551Z,66.10
2018-01-12T14:41:13.362Z,66.10
2018-01-12T14:43:43.546Z,65.80
2018-01-12T14:46:11.151Z,65.80
2018-01-12T14:48:38.994Z,66.10
2018-01-12T14:51:07.406Z,66.60
2018-01-12T14:53:35.115Z,66.50
2018-01-12T14:56:02.726Z,66.40
2018-01-12T14:58:30.490Z,66.60
2018-01-12T15:00:58.164Z,66.40
2018-01-12T15:03:25.764Z,66.20
2018-01-12T15:05:53.317Z,65.50
2018-01-12T15:08:21.131Z,66.00
2018-01-12T15:10:50.058Z,65.80
2018-01-12T15:13:17.612Z,65.80
2018-01-12T15:15:45.162Z,65.80
2018-01-12T15:18:13.600Z,66.00
2018-01-12T15:20:42.024Z,66.00
2018-01-12T15:23:09.606Z,67.10
2018-01-12T15:25:37.198Z,66.10
2018-01-12T15:28:04.787Z,65.80
2018-01-12T15:30:35.758Z,65.30
2018-01-12T15:33:04.109Z,65.60
2018-01-12T15:35:31.759Z,65.50
2018-01-12T15:37:59.296Z,66.10
2018-01-12T15:40:32.006Z,66.10
2018-01-12T15:43:02.191Z,66.30
2018-01-12T15:45:31.354Z,66.00
2018-01-12T15:47:59.056Z,66.50
2018-01-12T15:50:26.615Z,66.20
2018-01-12T15:52:54.235Z,66.10
2018-01-12T15:55:22.030Z,66.10
2018-01-12T15:57:50.441Z,66.20
2018-01-12T16:00:18.203Z,65.90
2018-01-12T16:02:46.515Z,66.10
2018-01-12T16:05:15.862Z,66.10
2018-01-12T16:07:43.439Z,66.00
2018-01-12T16:10:11.152Z,66.10
2018-01-12T16:12:38.788Z,66.60
2018-01-12T16:15:06.466Z,66.60
2018-01-12T16:17:35.688Z,66.80
2018-01-12T16:20:03.389Z,66.80
2018-01-12T16:22:30.938Z,67.40
2018-01-12T16:24:58.579Z,67.10
2018-01-12T16:27:26.271Z,67.20
2018-01-12T16:29:53.901Z,67.30
2018-01-12T16:32:21.450Z,67.30
2018-01-12T16:34:49.053Z,67.40
2018-01-12T16:37:16.645Z,67.10
2018-01-12T16:39:45.063Z,67.30
2018-01-12T16:42:12.619Z,67.30
2018-01-12T16:44:40.178Z,67.70
2018-01-12T16:47:07.929Z,68.20
2018-01-12T16:49:37.078Z,68.70
2018-01-12T16:52:04.808Z,68.20
2018-01-12T16:54:32.392Z,68.50
2018-01-12T16:57:03.850Z,69.00
2018-01-12T16:59:33.027Z,68.60
2018-01-12T17:02:00.611Z,69.00
2018-01-12T17:04:28.295Z,69.10
2018-01-12T17:06:56.488Z,68.80
2018-01-12T17:09:24.111Z,69.40
2018-01-12T17:11:51.839Z,69.10
2018-01-12T17:14:19.453Z,68.90
2018-01-12T17:16:46.994Z,69.00
2018-01-12T17:19:14.980Z,68.90
2018-01-12T17:21:42.558Z,68.20
2018-01-12T17:24:10.116Z,69.00
2018-01-12T17:26:38.464Z,68.70
2018-01-12T17:29:06.163Z,68.70
2018-01-12T17:31:35.576Z,69.10
2018-01-12T17:34:05.001Z,69.00
2018-01-12T17:36:34.833Z,69.80
2018-01-12T17:39:04.874Z,69.60
2018-01-12T17:41:36.380Z,69.40
2018-01-12T17:44:04.034Z,69.30
2018-01-12T17:46:33.546Z,69.30
2018-01-12T17:49:03.621Z,70.20
2018-01-12T17:51:31.824Z,70.30
2018-01-12T17:54:02.005Z,68.90
2018-01-12T17:56:32.140Z,70.60
2018-01-12T17:59:01.714Z,70.70
2018-01-12T18:01:30.089Z,70.10
2018-01-12T18:03:59.946Z,71.10
2018-01-12T18:06:29.615Z,70.40
2018-01-12T18:08:58.772Z,70.50
2018-01-12T18:24:24.394Z,70.40
2018-01-12T18:26:52.725Z,72.10
2018-01-12T18:29:22.032Z,71.90
2018-01-12T18:31:51.251Z,72.20
2018-01-12T18:34:20.871Z,71.90
2018-01-12T18:36:52.225Z,71.20
2018-01-12T18:39:20.102Z,70.40
2018-01-12T18:41:48.539Z,70.90
2018-01-12T18:44:17.786Z,70.40
2018-01-12T18:46:46.133Z,70.60
2018-01-12T18:49:14.492Z,70.50
2018-01-12T18:51:42.848Z,70.50
2018-01-12T18:54:11.397Z,70.50
2018-01-12T18:56:40.438Z,69.90
2018-01-12T18:59:11.320Z,69.80
2018-01-12T19:01:39.117Z,69.30
2018-01-12T19:04:06.755Z,69.30
2018-01-12T19:06:34.298Z,69.50
2018-01-12T19:09:01.857Z,69.30
2018-01-12T19:11:29.752Z,69.70
2018-01-12T19:13:57.289Z,70.00
2018-01-12T19:16:24.910Z,69.40
2018-01-12T19:18:52.585Z,69.30
2018-01-12T19:21:20.284Z,69.10
2018-01-12T19:23:47.868Z,68.50
2018-01-12T19:26:15.830Z,68.70
2018-01-12T19:28:43.337Z,68.80
2018-01-12T19:31:11.758Z,68.50
2018-01-12T19:33:39.326Z,68.50
2018-01-12T19:36:06.905Z,68.80
2018-01-12T19:38:34.475Z,68.30
2018-01-12T19:41:03.434Z,67.90
2018-01-12T19:43:31.020Z,67.80
2018-01-12T19:45:58.576Z,67.50
2018-01-12T19:48:26.621Z,67.80
2018-01-12T19:50:54.329Z,68.70
2018-01-12T19:53:21.858Z,68.10
2018-01-12T19:55:49.396Z,67.80
2018-01-12T19:58:17.175Z,68.00
2018-01-12T20:13:40.560Z,69.60
2018-01-12T20:16:08.148Z,69.60
2018-01-12T20:18:35.732Z,69.00
2018-01-12T20:21:03.806Z,69.60
2018-01-12T20:23:31.473Z,69.80
2018-01-12T20:25:59.640Z,69.50
2018-01-12T20:28:27.363Z,68.50
2018-01-12T20:30:55.850Z,68.00
2018-01-12T20:33:24.676Z,68.30
2018-01-12T20:35:53.165Z,68.00
2018-01-12T20:38:21.639Z,68.20
2018-01-12T20:40:49.715Z,68.90
2018-01-12T20:43:18.295Z,68.60
2018-01-12T20:45:45.898Z,68.60
2018-01-12T20:48:13.451Z,67.50
2018-01-12T20:50:41.011Z,67.60
2018-01-12T20:53:08.640Z,67.60
2018-01-12T20:55:36.243Z,67.70
2018-01-12T20:58:04.988Z,68.00
2018-01-12T21:00:32.631Z,68.00
2018-01-12T21:03:00.282Z,67.90
2018-01-12T21:05:27.872Z,67.50
2018-01-12T21:07:56.298Z,67.40
2018-01-12T21:10:23.915Z,67.50
2018-01-12T21:12:51.446Z,67.40
2018-01-12T21:15:18.975Z,66.90
2018-01-12T21:17:46.579Z,66.40
2018-01-12T21:20:14.120Z,66.70
2018-01-12T21:22:41.663Z,66.70
2018-01-12T21:25:09.817Z,66.40
2018-01-12T21:27:37.366Z,66.40
2018-01-12T21:30:05.814Z,67.00
2018-01-12T21:32:33.997Z,67.80
2018-01-12T21:35:01.595Z,67.90
2018-01-12T21:37:29.169Z,67.10
2018-01-12T21:39:56.734Z,67.00
2018-01-12T21:42:24.318Z,67.00
2018-01-12T21:44:51.923Z,66.70
2018-01-12T21:47:19.994Z,66.70
2018-01-12T21:49:48.584Z,66.60
2018-01-12T21:52:16.143Z,66.70
2018-01-12T21:54:43.774Z,67.80
2018-01-12T21:57:11.353Z,68.10
2018-01-12T21:59:38.949Z,66.90
2018-01-12T22:02:06.600Z,66.90
2018-01-12T22:04:34.123Z,66.70
2018-01-12T22:07:01.813Z,66.80
2018-01-12T22:09:29.389Z,66.40
2018-01-12T22:11:56.954Z,66.90
2018-01-12T22:14:24.581Z,67.20
2018-01-12T22:16:52.186Z,67.50
2018-01-12T22:19:19.838Z,67.20
2018-01-12T22:21:47.392Z,66.60
2018-01-12T22:24:14.923Z,66.30
2018-01-12T22:26:43.031Z,66.70
2018-01-12T22:29:11.344Z,66.40
2018-01-12T22:31:38.918Z,66.30
2018-01-12T22:34:06.850Z,65.90
2018-01-12T22:36:35.234Z,65.90
2018-01-12T22:39:02.866Z,66.00
2018-01-12T22:41:30.408Z,66.50
2018-01-12T22:43:59.119Z,66.10
2018-01-12T22:46:27.136Z,66.00
2018-01-12T22:48:54.825Z,66.20
2018-01-12T22:51:22.436Z,65.80
2018-01-12T22:53:49.994Z,66.40
2018-01-12T22:56:18.382Z,66.40
2018-01-12T22:58:45.952Z,66.60
2018-01-12T23:01:13.544Z,66.30
2018-01-12T23:03:41.130Z,66.40
2018-01-12T23:06:09.169Z,66.80
2018-01-12T23:08:36.734Z,66.80
2018-01-12T23:11:04.328Z,66.70
2018-01-12T23:13:32.665Z,66.80
2018-01-12T23:16:00.437Z,66.70
2018-01-12T23:18:28.006Z,67.70
2018-01-12T23:20:55.694Z,68.00
2018-01-12T23:23:23.254Z,68.30
2018-01-12T23:25:51.622Z,69.60
2018-01-12T23:28:19.518Z,69.60
2018-01-12T23:30:47.084Z,69.40
2018-01-12T23:33:15.462Z,69.60
2018-01-12T23:35:43.808Z,69.20
2018-01-12T23:38:12.167Z,69.20
2018-01-12T23:40:39.743Z,69.10
2018-01-12T23:43:07.262Z,68.80
2018-01-12T23:45:34.834Z,68.60
2018-01-12T23:48:02.401Z,68.60
2018-01-12T23:50:30.075Z,69.60
2018-01-12T23:52:57.676Z,69.10
2018-01-12T23:55:25.218Z,70.10
2018-01-12T23:57:52.805Z,69.30
